Terminal Aerodrome Forecast
Issued by NWS

Home | Current Version | Previous Version | Text Only | Print | Product List | Glossary On
Versions: 1 2 3 4 5 6 7 8 9 10 11 12 13 14 15 16 17
000
FTUS45 KTFX 262349
TAFHLN
TAF
KHLN 262349Z 2700/2724 VRB05KT P6SM VCSH SCT040 OVC060
      TEMPO 2704/2708 -SHRA BKN040
     FM270900 VRB05KT P6SM SCT080 BKN150
     FM271600 29011KT P6SM VCSH SCT040 OVC070 PROB30 2718/2724 -SHRA
      BKN035=

USA.gov is the U.S. government's official web portal to all federal, state and local government web resources and services.